sensor_id;sensor_type;location;lat;lon;timestamp;P1;durP1;ratioP1;P2;durP2;ratioP2
69621;SDS011;56841;55.964;37.674;2022-07-22T00:02:15;5.22;;;2.42;;
69621;SDS011;56841;55.964;37.674;2022-07-22T00:04:41;4.40;;;2.53;;
69621;SDS011;56841;55.964;37.674;2022-07-22T00:07:07;6.55;;;2.95;;
69621;SDS011;56841;55.964;37.674;2022-07-22T00:09:33;3.88;;;2.80;;
69621;SDS011;56841;55.964;37.674;2022-07-22T00:11:59;7.35;;;2.90;;
69621;SDS011;56841;55.964;37.674;2022-07-22T00:14:25;7.85;;;2.75;;
69621;SDS011;56841;55.964;37.674;2022-07-22T00:16:51;3.88;;;2.50;;
69621;SDS011;56841;55.964;37.674;2022-07-22T00:19:16;7.88;;;3.60;;
69621;SDS011;56841;55.964;37.674;2022-07-22T00:21:42;5.95;;;2.78;;
69621;SDS011;56841;55.964;37.674;2022-07-22T00:24:08;5.10;;;2.45;;
69621;SDS011;56841;55.964;37.674;2022-07-22T00:26:34;5.47;;;2.95;;
69621;SDS011;56841;55.964;37.674;2022-07-22T00:29:00;9.63;;;3.10;;
69621;SDS011;56841;55.964;37.674;2022-07-22T00:31:26;4.25;;;2.67;;
69621;SDS011;56841;55.964;37.674;2022-07-22T00:33:52;6.63;;;3.00;;
69621;SDS011;56841;55.964;37.674;2022-07-22T00:36:18;4.70;;;2.72;;
69621;SDS011;56841;55.964;37.674;2022-07-22T00:38:44;7.35;;;2.97;;
69621;SDS011;56841;55.964;37.674;2022-07-22T00:41:10;4.53;;;2.70;;
69621;SDS011;56841;55.964;37.674;2022-07-22T00:43:56;5.68;;;3.00;;
69621;SDS011;56841;55.964;37.674;2022-07-22T00:46:24;7.90;;;3.20;;
69621;SDS011;56841;55.964;37.674;2022-07-22T00:48:51;5.80;;;3.20;;
69621;SDS011;56841;55.964;37.674;2022-07-22T00:51:18;4.70;;;2.80;;
69621;SDS011;56841;55.964;37.674;2022-07-22T00:53:46;5.05;;;2.80;;
69621;SDS011;56841;55.964;37.674;2022-07-22T00:56:12;6.18;;;3.20;;
69621;SDS011;56841;55.964;37.674;2022-07-22T00:58:39;4.43;;;2.58;;
69621;SDS011;56841;55.964;37.674;2022-07-22T01:01:05;4.97;;;3.00;;
69621;SDS011;56841;55.964;37.674;2022-07-22T01:03:31;4.97;;;2.78;;
69621;SDS011;56841;55.964;37.674;2022-07-22T01:05:57;4.25;;;3.13;;
69621;SDS011;56841;55.964;37.674;2022-07-22T01:08:23;8.23;;;3.95;;
69621;SDS011;56841;55.964;37.674;2022-07-22T01:10:49;4.72;;;3.15;;
69621;SDS011;56841;55.964;37.674;2022-07-22T01:13:15;4.32;;;2.70;;
69621;SDS011;56841;55.964;37.674;2022-07-22T01:15:41;4.45;;;3.05;;
69621;SDS011;56841;55.964;37.674;2022-07-22T01:18:07;4.68;;;2.83;;
69621;SDS011;56841;55.964;37.674;2022-07-22T01:20:34;5.88;;;3.00;;
69621;SDS011;56841;55.964;37.674;2022-07-22T01:23:01;4.70;;;3.22;;
69621;SDS011;56841;55.964;37.674;2022-07-22T01:25:27;6.32;;;3.25;;
69621;SDS011;56841;55.964;37.674;2022-07-22T01:27:53;4.60;;;2.85;;
69621;SDS011;56841;55.964;37.674;2022-07-22T01:30:19;4.32;;;3.17;;
69621;SDS011;56841;55.964;37.674;2022-07-22T01:32:45;5.68;;;3.20;;
69621;SDS011;56841;55.964;37.674;2022-07-22T01:35:11;5.45;;;3.13;;
69621;SDS011;56841;55.964;37.674;2022-07-22T01:37:37;6.78;;;3.22;;
69621;SDS011;56841;55.964;37.674;2022-07-22T01:40:03;5.97;;;3.20;;
69621;SDS011;56841;55.964;37.674;2022-07-22T01:42:29;6.18;;;3.00;;
69621;SDS011;56841;55.964;37.674;2022-07-22T01:44:55;10.55;;;3.85;;
69621;SDS011;56841;55.964;37.674;2022-07-22T01:47:21;6.70;;;3.40;;
69621;SDS011;56841;55.964;37.674;2022-07-22T01:49:47;5.60;;;3.42;;
69621;SDS011;56841;55.964;37.674;2022-07-22T01:52:13;6.28;;;3.20;;
69621;SDS011;56841;55.964;37.674;2022-07-22T01:54:41;9.48;;;3.42;;
69621;SDS011;56841;55.964;37.674;2022-07-22T01:57:07;4.57;;;3.08;;
69621;SDS011;56841;55.964;37.674;2022-07-22T01:59:41;4.40;;;3.03;;
69621;SDS011;56841;55.964;37.674;2022-07-22T02:02:07;7.22;;;3.58;;
69621;SDS011;56841;55.964;37.674;2022-07-22T02:04:32;6.80;;;3.15;;
69621;SDS011;56841;55.964;37.674;2022-07-22T02:06:58;5.90;;;3.13;;
69621;SDS011;56841;55.964;37.674;2022-07-22T02:09:24;6.05;;;3.05;;
69621;SDS011;56841;55.964;37.674;2022-07-22T02:11:52;5.72;;;3.10;;
69621;SDS011;56841;55.964;37.674;2022-07-22T02:14:18;5.78;;;3.42;;
69621;SDS011;56841;55.964;37.674;2022-07-22T02:16:46;3.90;;;2.83;;
69621;SDS011;56841;55.964;37.674;2022-07-22T02:19:12;4.15;;;2.92;;
69621;SDS011;56841;55.964;37.674;2022-07-22T02:21:39;4.85;;;3.03;;
69621;SDS011;56841;55.964;37.674;2022-07-22T02:24:04;5.25;;;3.30;;
69621;SDS011;56841;55.964;37.674;2022-07-22T02:26:30;8.10;;;3.22;;
69621;SDS011;56841;55.964;37.674;2022-07-22T02:28:57;4.97;;;2.95;;
69621;SDS011;56841;55.964;37.674;2022-07-22T02:31:23;4.90;;;3.00;;
69621;SDS011;56841;55.964;37.674;2022-07-22T02:33:49;3.58;;;2.55;;
69621;SDS011;56841;55.964;37.674;2022-07-22T02:36:15;5.07;;;3.03;;
69621;SDS011;56841;55.964;37.674;2022-07-22T02:38:42;4.22;;;3.10;;
69621;SDS011;56841;55.964;37.674;2022-07-22T02:41:09;4.88;;;2.95;;
69621;SDS011;56841;55.964;37.674;2022-07-22T02:43:38;6.75;;;2.97;;
69621;SDS011;56841;55.964;37.674;2022-07-22T02:46:04;9.23;;;3.80;;
69621;SDS011;56841;55.964;37.674;2022-07-22T02:48:30;4.80;;;3.08;;
69621;SDS011;56841;55.964;37.674;2022-07-22T02:50:56;5.40;;;2.85;;
69621;SDS011;56841;55.964;37.674;2022-07-22T02:53:26;5.78;;;2.97;;
69621;SDS011;56841;55.964;37.674;2022-07-22T02:55:52;5.82;;;3.08;;
69621;SDS011;56841;55.964;37.674;2022-07-22T02:58:18;9.18;;;3.00;;
69621;SDS011;56841;55.964;37.674;2022-07-22T03:00:44;3.97;;;2.58;;
69621;SDS011;56841;55.964;37.674;2022-07-22T03:03:11;3.95;;;2.53;;
69621;SDS011;56841;55.964;37.674;2022-07-22T03:05:37;5.00;;;2.53;;
69621;SDS011;56841;55.964;37.674;2022-07-22T03:08:21;3.63;;;2.53;;
69621;SDS011;56841;55.964;37.674;2022-07-22T03:10:47;4.95;;;2.60;;
69621;SDS011;56841;55.964;37.674;2022-07-22T03:13:13;4.10;;;2.80;;
69621;SDS011;56841;55.964;37.674;2022-07-22T03:15:39;13.50;;;4.60;;
69621;SDS011;56841;55.964;37.674;2022-07-22T03:18:05;5.03;;;3.35;;
69621;SDS011;56841;55.964;37.674;2022-07-22T03:20:31;3.85;;;2.70;;
69621;SDS011;56841;55.964;37.674;2022-07-22T03:22:58;5.80;;;2.42;;
69621;SDS011;56841;55.964;37.674;2022-07-22T03:25:25;4.72;;;2.60;;
69621;SDS011;56841;55.964;37.674;2022-07-22T03:27:51;4.60;;;2.60;;
69621;SDS011;56841;55.964;37.674;2022-07-22T03:30:17;4.50;;;2.72;;
69621;SDS011;56841;55.964;37.674;2022-07-22T03:32:43;5.55;;;2.88;;
69621;SDS011;56841;55.964;37.674;2022-07-22T03:35:13;5.90;;;2.90;;
69621;SDS011;56841;55.964;37.674;2022-07-22T03:37:41;5.05;;;2.47;;
69621;SDS011;56841;55.964;37.674;2022-07-22T03:40:07;6.18;;;2.90;;
69621;SDS011;56841;55.964;37.674;2022-07-22T03:42:36;3.25;;;2.40;;
69621;SDS011;56841;55.964;37.674;2022-07-22T03:45:02;3.55;;;2.38;;
69621;SDS011;56841;55.964;37.674;2022-07-22T03:47:29;3.10;;;2.17;;
69621;SDS011;56841;55.964;37.674;2022-07-22T03:49:56;4.03;;;2.22;;
69621;SDS011;56841;55.964;37.674;2022-07-22T03:52:26;4.28;;;2.53;;
69621;SDS011;56841;55.964;37.674;2022-07-22T03:55:01;3.47;;;2.30;;
69621;SDS011;56841;55.964;37.674;2022-07-22T03:57:29;4.50;;;2.55;;
69621;SDS011;56841;55.964;37.674;2022-07-22T04:00:03;3.47;;;2.38;;
69621;SDS011;56841;55.964;37.674;2022-07-22T04:02:42;5.28;;;2.40;;
69621;SDS011;56841;55.964;37.674;2022-07-22T04:05:43;4.82;;;2.60;;
69621;SDS011;56841;55.964;37.674;2022-07-22T04:08:41;4.90;;;2.20;;
69621;SDS011;56841;55.964;37.674;2022-07-22T04:11:09;6.43;;;2.58;;
69621;SDS011;56841;55.964;37.674;2022-07-22T04:13:35;7.20;;;2.53;;
69621;SDS011;56841;55.964;37.674;2022-07-22T04:16:30;4.25;;;2.28;;
69621;SDS011;56841;55.964;37.674;2022-07-22T04:19:05;4.50;;;2.40;;
69621;SDS011;56841;55.964;37.674;2022-07-22T04:21:47;4.55;;;2.42;;
69621;SDS011;56841;55.964;37.674;2022-07-22T04:24:13;4.97;;;2.63;;
69621;SDS011;56841;55.964;37.674;2022-07-22T04:26:38;5.82;;;2.97;;
69621;SDS011;56841;55.964;37.674;2022-07-22T04:29:05;3.95;;;2.75;;
69621;SDS011;56841;55.964;37.674;2022-07-22T04:31:31;5.13;;;2.60;;
69621;SDS011;56841;55.964;37.674;2022-07-22T04:34:16;4.15;;;2.75;;
69621;SDS011;56841;55.964;37.674;2022-07-22T04:36:42;4.75;;;2.67;;
69621;SDS011;56841;55.964;37.674;2022-07-22T04:39:08;4.30;;;2.13;;
69621;SDS011;56841;55.964;37.674;2022-07-22T04:41:35;3.92;;;2.30;;
69621;SDS011;56841;55.964;37.674;2022-07-22T04:44:01;4.43;;;2.42;;
69621;SDS011;56841;55.964;37.674;2022-07-22T04:46:29;4.30;;;2.42;;
69621;SDS011;56841;55.964;37.674;2022-07-22T04:48:56;5.97;;;2.70;;
69621;SDS011;56841;55.964;37.674;2022-07-22T04:51:22;5.65;;;2.70;;
69621;SDS011;56841;55.964;37.674;2022-07-22T04:53:53;5.32;;;2.42;;
69621;SDS011;56841;55.964;37.674;2022-07-22T04:56:22;3.75;;;2.25;;
69621;SDS011;56841;55.964;37.674;2022-07-22T04:58:48;5.68;;;3.00;;
69621;SDS011;56841;55.964;37.674;2022-07-22T05:01:14;7.28;;;2.30;;
69621;SDS011;56841;55.964;37.674;2022-07-22T05:03:43;4.85;;;2.67;;
69621;SDS011;56841;55.964;37.674;2022-07-22T05:06:10;9.77;;;3.60;;
69621;SDS011;56841;55.964;37.674;2022-07-22T05:08:39;4.22;;;2.45;;
69621;SDS011;56841;55.964;37.674;2022-07-22T05:11:06;4.05;;;2.20;;
69621;SDS011;56841;55.964;37.674;2022-07-22T05:13:33;4.68;;;2.53;;
69621;SDS011;56841;55.964;37.674;2022-07-22T05:16:03;4.22;;;2.00;;
69621;SDS011;56841;55.964;37.674;2022-07-22T05:18:31;4.20;;;2.28;;
69621;SDS011;56841;55.964;37.674;2022-07-22T05:20:57;3.70;;;1.95;;
69621;SDS011;56841;55.964;37.674;2022-07-22T05:23:23;6.70;;;2.20;;
69621;SDS011;56841;55.964;37.674;2022-07-22T05:25:49;6.55;;;2.38;;
69621;SDS011;56841;55.964;37.674;2022-07-22T05:28:15;2.88;;;2.00;;
69621;SDS011;56841;55.964;37.674;2022-07-22T05:30:43;3.63;;;1.90;;
69621;SDS011;56841;55.964;37.674;2022-07-22T05:33:09;4.70;;;2.50;;
69621;SDS011;56841;55.964;37.674;2022-07-22T05:35:55;4.38;;;2.17;;
69621;SDS011;56841;55.964;37.674;2022-07-22T05:38:21;3.42;;;2.20;;
69621;SDS011;56841;55.964;37.674;2022-07-22T05:40:49;3.97;;;2.03;;
69621;SDS011;56841;55.964;37.674;2022-07-22T05:43:14;2.70;;;1.75;;
69621;SDS011;56841;55.964;37.674;2022-07-22T05:45:40;3.53;;;2.15;;
69621;SDS011;56841;55.964;37.674;2022-07-22T05:48:09;3.05;;;2.10;;
69621;SDS011;56841;55.964;37.674;2022-07-22T05:50:35;5.57;;;2.17;;
69621;SDS011;56841;55.964;37.674;2022-07-22T05:53:01;3.88;;;2.00;;
69621;SDS011;56841;55.964;37.674;2022-07-22T05:55:27;4.28;;;2.00;;
69621;SDS011;56841;55.964;37.674;2022-07-22T05:57:53;3.22;;;1.73;;
69621;SDS011;56841;55.964;37.674;2022-07-22T06:00:19;4.57;;;2.10;;
69621;SDS011;56841;55.964;37.674;2022-07-22T06:02:45;7.60;;;2.17;;
69621;SDS011;56841;55.964;37.674;2022-07-22T06:05:16;3.90;;;1.83;;
69621;SDS011;56841;55.964;37.674;2022-07-22T06:07:43;2.92;;;1.90;;
69621;SDS011;56841;55.964;37.674;2022-07-22T06:10:12;4.30;;;1.90;;
69621;SDS011;56841;55.964;37.674;2022-07-22T06:12:38;4.22;;;1.88;;
69621;SDS011;56841;55.964;37.674;2022-07-22T06:15:04;2.90;;;1.80;;
69621;SDS011;56841;55.964;37.674;2022-07-22T06:17:31;2.60;;;1.30;;
69621;SDS011;56841;55.964;37.674;2022-07-22T06:19:58;5.55;;;2.70;;
69621;SDS011;56841;55.964;37.674;2022-07-22T06:22:24;5.30;;;1.73;;
69621;SDS011;56841;55.964;37.674;2022-07-22T06:24:50;4.05;;;1.80;;
69621;SDS011;56841;55.964;37.674;2022-07-22T06:27:16;2.80;;;1.48;;
69621;SDS011;56841;55.964;37.674;2022-07-22T06:29:42;2.65;;;1.42;;
69621;SDS011;56841;55.964;37.674;2022-07-22T06:32:08;3.03;;;1.25;;
69621;SDS011;56841;55.964;37.674;2022-07-22T06:34:34;2.65;;;1.25;;
69621;SDS011;56841;55.964;37.674;2022-07-22T06:37:04;4.60;;;1.60;;
69621;SDS011;56841;55.964;37.674;2022-07-22T06:39:30;3.85;;;1.50;;
69621;SDS011;56841;55.964;37.674;2022-07-22T06:42:16;3.42;;;1.42;;
69621;SDS011;56841;55.964;37.674;2022-07-22T06:45:00;2.95;;;1.50;;
69621;SDS011;56841;55.964;37.674;2022-07-22T06:47:49;3.72;;;1.70;;
69621;SDS011;56841;55.964;37.674;2022-07-22T06:50:17;3.85;;;1.55;;
69621;SDS011;56841;55.964;37.674;2022-07-22T06:52:43;4.63;;;1.30;;
69621;SDS011;56841;55.964;37.674;2022-07-22T06:55:11;4.35;;;1.55;;
69621;SDS011;56841;55.964;37.674;2022-07-22T06:57:42;3.33;;;1.48;;
69621;SDS011;56841;55.964;37.674;2022-07-22T07:00:09;3.83;;;1.20;;
69621;SDS011;56841;55.964;37.674;2022-07-22T07:02:57;2.38;;;1.45;;
69621;SDS011;56841;55.964;37.674;2022-07-22T07:05:24;1.77;;;1.17;;
69621;SDS011;56841;55.964;37.674;2022-07-22T07:07:50;2.00;;;1.20;;
69621;SDS011;56841;55.964;37.674;2022-07-22T07:10:16;3.97;;;1.40;;
69621;SDS011;56841;55.964;37.674;2022-07-22T07:12:50;3.00;;;1.52;;
69621;SDS011;56841;55.964;37.674;2022-07-22T07:15:25;3.25;;;1.40;;
69621;SDS011;56841;55.964;37.674;2022-07-22T07:17:53;2.92;;;1.33;;
69621;SDS011;56841;55.964;37.674;2022-07-22T07:20:20;2.90;;;1.40;;
69621;SDS011;56841;55.964;37.674;2022-07-22T07:22:46;2.92;;;1.40;;
69621;SDS011;56841;55.964;37.674;2022-07-22T07:25:12;11.45;;;2.40;;
69621;SDS011;56841;55.964;37.674;2022-07-22T07:27:38;5.10;;;2.10;;
69621;SDS011;56841;55.964;37.674;2022-07-22T07:30:07;3.45;;;1.40;;
69621;SDS011;56841;55.964;37.674;2022-07-22T07:32:36;1.92;;;1.27;;
69621;SDS011;56841;55.964;37.674;2022-07-22T07:35:03;3.17;;;1.48;;
69621;SDS011;56841;55.964;37.674;2022-07-22T07:37:31;5.40;;;1.75;;
69621;SDS011;56841;55.964;37.674;2022-07-22T07:39:57;4.30;;;1.40;;
69621;SDS011;56841;55.964;37.674;2022-07-22T07:42:23;3.47;;;1.40;;
69621;SDS011;56841;55.964;37.674;2022-07-22T07:44:50;2.72;;;1.48;;
69621;SDS011;56841;55.964;37.674;2022-07-22T07:47:15;4.10;;;1.73;;
69621;SDS011;56841;55.964;37.674;2022-07-22T07:49:45;3.08;;;1.42;;
69621;SDS011;56841;55.964;37.674;2022-07-22T07:52:11;5.00;;;1.30;;
69621;SDS011;56841;55.964;37.674;2022-07-22T07:54:38;3.35;;;1.40;;
69621;SDS011;56841;55.964;37.674;2022-07-22T07:57:06;3.92;;;1.27;;
69621;SDS011;56841;55.964;37.674;2022-07-22T07:59:32;3.38;;;1.50;;
69621;SDS011;56841;55.964;37.674;2022-07-22T08:02:01;4.70;;;1.40;;
69621;SDS011;56841;55.964;37.674;2022-07-22T08:04:27;3.75;;;1.58;;
69621;SDS011;56841;55.964;37.674;2022-07-22T08:06:53;2.50;;;1.55;;
69621;SDS011;56841;55.964;37.674;2022-07-22T08:09:19;3.72;;;1.63;;
69621;SDS011;56841;55.964;37.674;2022-07-22T08:11:45;3.92;;;1.70;;
69621;SDS011;56841;55.964;37.674;2022-07-22T08:14:25;6.38;;;1.60;;
69621;SDS011;56841;55.964;37.674;2022-07-22T08:17:13;5.55;;;2.42;;
69621;SDS011;56841;55.964;37.674;2022-07-22T08:19:39;5.50;;;2.70;;
69621;SDS011;56841;55.964;37.674;2022-07-22T08:22:05;4.35;;;1.90;;
69621;SDS011;56841;55.964;37.674;2022-07-22T08:24:32;3.50;;;1.60;;
69621;SDS011;56841;55.964;37.674;2022-07-22T08:27:01;3.90;;;1.77;;
69621;SDS011;56841;55.964;37.674;2022-07-22T08:29:28;3.88;;;1.40;;
69621;SDS011;56841;55.964;37.674;2022-07-22T08:31:54;3.28;;;1.50;;
69621;SDS011;56841;55.964;37.674;2022-07-22T08:34:20;4.18;;;1.50;;
69621;SDS011;56841;55.964;37.674;2022-07-22T08:36:46;3.38;;;1.33;;
69621;SDS011;56841;55.964;37.674;2022-07-22T08:39:12;2.90;;;1.38;;
69621;SDS011;56841;55.964;37.674;2022-07-22T08:41:38;2.75;;;1.42;;
69621;SDS011;56841;55.964;37.674;2022-07-22T08:44:05;3.10;;;1.50;;
69621;SDS011;56841;55.964;37.674;2022-07-22T08:46:33;5.15;;;1.63;;
69621;SDS011;56841;55.964;37.674;2022-07-22T08:49:16;2.90;;;1.50;;
69621;SDS011;56841;55.964;37.674;2022-07-22T08:52:01;4.10;;;2.10;;
69621;SDS011;56841;55.964;37.674;2022-07-22T08:54:34;3.88;;;1.50;;
69621;SDS011;56841;55.964;37.674;2022-07-22T08:57:01;3.20;;;1.40;;
69621;SDS011;56841;55.964;37.674;2022-07-22T08:59:26;4.00;;;1.50;;
69621;SDS011;56841;55.964;37.674;2022-07-22T09:02:06;4.05;;;1.70;;
69621;SDS011;56841;55.964;37.674;2022-07-22T09:07:32;3.55;;;1.50;;
69621;SDS011;56841;55.964;37.674;2022-07-22T09:10:12;2.95;;;1.65;;
69621;SDS011;56841;55.964;37.674;2022-07-22T09:12:59;2.47;;;1.33;;
69621;SDS011;56841;55.964;37.674;2022-07-22T09:15:46;3.50;;;1.80;;
69621;SDS011;56841;55.964;37.674;2022-07-22T09:18:50;3.92;;;1.60;;
69621;SDS011;56841;55.964;37.674;2022-07-22T09:21:41;2.50;;;1.60;;
69621;SDS011;56841;55.964;37.674;2022-07-22T09:24:31;2.72;;;1.30;;
69621;SDS011;56841;55.964;37.674;2022-07-22T09:27:24;2.70;;;1.70;;
69621;SDS011;56841;55.964;37.674;2022-07-22T09:30:13;2.65;;;1.50;;
69621;SDS011;56841;55.964;37.674;2022-07-22T09:32:49;3.08;;;1.60;;
69621;SDS011;56841;55.964;37.674;2022-07-22T09:35:33;3.47;;;1.45;;
69621;SDS011;56841;55.964;37.674;2022-07-22T09:38:01;4.53;;;1.70;;
69621;SDS011;56841;55.964;37.674;2022-07-22T09:40:30;4.25;;;2.13;;
69621;SDS011;56841;55.964;37.674;2022-07-22T09:43:11;2.83;;;1.40;;
69621;SDS011;56841;55.964;37.674;2022-07-22T09:45:49;3.47;;;1.85;;
69621;SDS011;56841;55.964;37.674;2022-07-22T09:48:24;4.68;;;1.83;;
69621;SDS011;56841;55.964;37.674;2022-07-22T09:51:09;6.20;;;1.70;;
69621;SDS011;56841;55.964;37.674;2022-07-22T09:53:55;3.03;;;1.90;;
69621;SDS011;56841;55.964;37.674;2022-07-22T09:56:26;9.15;;;3.05;;
69621;SDS011;56841;55.964;37.674;2022-07-22T09:58:55;5.20;;;3.35;;
69621;SDS011;56841;55.964;37.674;2022-07-22T10:01:30;2.90;;;1.50;;
69621;SDS011;56841;55.964;37.674;2022-07-22T10:03:57;3.17;;;1.75;;
69621;SDS011;56841;55.964;37.674;2022-07-22T10:06:23;4.55;;;1.63;;
69621;SDS011;56841;55.964;37.674;2022-07-22T10:08:50;3.00;;;1.80;;
69621;SDS011;56841;55.964;37.674;2022-07-22T10:11:16;4.18;;;1.70;;
69621;SDS011;56841;55.964;37.674;2022-07-22T10:13:43;4.35;;;1.60;;
69621;SDS011;56841;55.964;37.674;2022-07-22T10:16:12;3.15;;;1.50;;
69621;SDS011;56841;55.964;37.674;2022-07-22T10:18:40;3.17;;;1.42;;
69621;SDS011;56841;55.964;37.674;2022-07-22T10:21:10;4.28;;;1.63;;
69621;SDS011;56841;55.964;37.674;2022-07-22T10:23:36;5.45;;;1.80;;
69621;SDS011;56841;55.964;37.674;2022-07-22T10:26:55;4.22;;;1.70;;
69621;SDS011;56841;55.964;37.674;2022-07-22T10:32:21;3.55;;;1.65;;
69621;SDS011;56841;55.964;37.674;2022-07-22T10:37:36;2.40;;;1.60;;
69621;SDS011;56841;55.964;37.674;2022-07-22T10:48:04;5.82;;;3.15;;
69621;SDS011;56841;55.964;37.674;2022-07-22T10:53:04;5.80;;;3.58;;
69621;SDS011;56841;55.964;37.674;2022-07-22T10:55:31;5.68;;;2.78;;
69621;SDS011;56841;55.964;37.674;2022-07-22T10:57:58;4.45;;;1.70;;
69621;SDS011;56841;55.964;37.674;2022-07-22T11:00:24;3.30;;;1.52;;
69621;SDS011;56841;55.964;37.674;2022-07-22T11:02:50;5.00;;;1.80;;
69621;SDS011;56841;55.964;37.674;2022-07-22T11:05:25;5.93;;;1.70;;
69621;SDS011;56841;55.964;37.674;2022-07-22T11:07:52;4.15;;;1.83;;
69621;SDS011;56841;55.964;37.674;2022-07-22T11:10:18;3.08;;;1.58;;
69621;SDS011;56841;55.964;37.674;2022-07-22T11:12:46;4.93;;;1.75;;
69621;SDS011;56841;55.964;37.674;2022-07-22T11:15:13;3.65;;;2.00;;
69621;SDS011;56841;55.964;37.674;2022-07-22T11:17:39;3.40;;;1.90;;
69621;SDS011;56841;55.964;37.674;2022-07-22T11:20:06;6.82;;;2.10;;
69621;SDS011;56841;55.964;37.674;2022-07-22T11:22:34;2.97;;;1.92;;
69621;SDS011;56841;55.964;37.674;2022-07-22T11:25:00;7.30;;;4.10;;
69621;SDS011;56841;55.964;37.674;2022-07-22T11:27:29;11.85;;;6.40;;
69621;SDS011;56841;55.964;37.674;2022-07-22T11:29:55;5.43;;;3.42;;
69621;SDS011;56841;55.964;37.674;2022-07-22T11:32:26;7.93;;;2.83;;
69621;SDS011;56841;55.964;37.674;2022-07-22T11:34:57;6.72;;;3.30;;
69621;SDS011;56841;55.964;37.674;2022-07-22T11:37:24;9.65;;;2.95;;
69621;SDS011;56841;55.964;37.674;2022-07-22T11:39:51;5.20;;;1.90;;
69621;SDS011;56841;55.964;37.674;2022-07-22T11:42:27;4.30;;;1.83;;
69621;SDS011;56841;55.964;37.674;2022-07-22T11:44:53;5.82;;;2.00;;
69621;SDS011;56841;55.964;37.674;2022-07-22T11:47:19;5.53;;;2.20;;
69621;SDS011;56841;55.964;37.674;2022-07-22T11:49:45;2.78;;;1.70;;
69621;SDS011;56841;55.964;37.674;2022-07-22T11:52:13;4.60;;;2.15;;
69621;SDS011;56841;55.964;37.674;2022-07-22T11:54:40;2.50;;;1.85;;
69621;SDS011;56841;55.964;37.674;2022-07-22T11:57:07;5.55;;;2.13;;
69621;SDS011;56841;55.964;37.674;2022-07-22T11:59:33;4.18;;;2.03;;
69621;SDS011;56841;55.964;37.674;2022-07-22T12:02:00;4.70;;;2.00;;
69621;SDS011;56841;55.964;37.674;2022-07-22T12:04:28;7.90;;;3.97;;
69621;SDS011;56841;55.964;37.674;2022-07-22T12:06:57;6.22;;;3.40;;
69621;SDS011;56841;55.964;37.674;2022-07-22T12:09:25;7.22;;;2.55;;
69621;SDS011;56841;55.964;37.674;2022-07-22T12:11:55;2.67;;;1.50;;
69621;SDS011;56841;55.964;37.674;2022-07-22T12:14:26;3.70;;;1.52;;
69621;SDS011;56841;55.964;37.674;2022-07-22T12:17:01;3.60;;;1.90;;
69621;SDS011;56841;55.964;37.674;2022-07-22T12:19:37;5.90;;;2.20;;
69621;SDS011;56841;55.964;37.674;2022-07-22T12:22:09;5.10;;;2.90;;
69621;SDS011;56841;55.964;37.674;2022-07-22T12:24:40;5.20;;;2.10;;
69621;SDS011;56841;55.964;37.674;2022-07-22T12:27:11;3.25;;;1.65;;
69621;SDS011;56841;55.964;37.674;2022-07-22T12:29:43;3.88;;;2.10;;
69621;SDS011;56841;55.964;37.674;2022-07-22T12:32:15;3.42;;;2.63;;
69621;SDS011;56841;55.964;37.674;2022-07-22T12:37:25;3.40;;;1.70;;
69621;SDS011;56841;55.964;37.674;2022-07-22T12:40:04;2.15;;;1.58;;
69621;SDS011;56841;55.964;37.674;2022-07-22T12:42:37;3.30;;;1.58;;
69621;SDS011;56841;55.964;37.674;2022-07-22T12:50:22;3.53;;;1.60;;
69621;SDS011;56841;55.964;37.674;2022-07-22T12:52:55;6.35;;;2.60;;
69621;SDS011;56841;55.964;37.674;2022-07-22T12:55:23;3.13;;;1.75;;
69621;SDS011;56841;55.964;37.674;2022-07-22T12:57:49;3.55;;;1.75;;
69621;SDS011;56841;55.964;37.674;2022-07-22T13:00:29;2.67;;;1.58;;
69621;SDS011;56841;55.964;37.674;2022-07-22T13:02:57;4.13;;;2.10;;
69621;SDS011;56841;55.964;37.674;2022-07-22T13:05:24;3.30;;;1.67;;
69621;SDS011;56841;55.964;37.674;2022-07-22T13:07:50;3.15;;;1.65;;
69621;SDS011;56841;55.964;37.674;2022-07-22T13:10:18;3.47;;;1.40;;
69621;SDS011;56841;55.964;37.674;2022-07-22T13:12:46;4.88;;;1.83;;
69621;SDS011;56841;55.964;37.674;2022-07-22T13:15:12;3.30;;;1.80;;
69621;SDS011;56841;55.964;37.674;2022-07-22T13:17:39;2.40;;;1.58;;
69621;SDS011;56841;55.964;37.674;2022-07-22T13:20:05;2.72;;;1.73;;
69621;SDS011;56841;55.964;37.674;2022-07-22T13:22:33;2.58;;;1.52;;
69621;SDS011;56841;55.964;37.674;2022-07-22T13:24:59;2.75;;;1.67;;
69621;SDS011;56841;55.964;37.674;2022-07-22T13:27:25;3.25;;;1.73;;
69621;SDS011;56841;55.964;37.674;2022-07-22T13:29:50;4.28;;;1.85;;
69621;SDS011;56841;55.964;37.674;2022-07-22T13:32:16;3.67;;;1.80;;
69621;SDS011;56841;55.964;37.674;2022-07-22T13:34:42;4.50;;;1.80;;
69621;SDS011;56841;55.964;37.674;2022-07-22T13:37:08;4.63;;;1.52;;
69621;SDS011;56841;55.964;37.674;2022-07-22T13:39:34;3.40;;;1.90;;
69621;SDS011;56841;55.964;37.674;2022-07-22T13:42:01;2.80;;;1.52;;
69621;SDS011;56841;55.964;37.674;2022-07-22T13:44:27;3.33;;;1.67;;
69621;SDS011;56841;55.964;37.674;2022-07-22T13:46:53;5.35;;;1.70;;
69621;SDS011;56841;55.964;37.674;2022-07-22T13:49:28;4.13;;;2.13;;
69621;SDS011;56841;55.964;37.674;2022-07-22T13:51:55;4.55;;;1.80;;
69621;SDS011;56841;55.964;37.674;2022-07-22T13:54:22;2.42;;;1.70;;
69621;SDS011;56841;55.964;37.674;2022-07-22T13:56:50;3.78;;;1.92;;
69621;SDS011;56841;55.964;37.674;2022-07-22T13:59:17;5.30;;;2.30;;
69621;SDS011;56841;55.964;37.674;2022-07-22T14:01:44;3.15;;;2.13;;
69621;SDS011;56841;55.964;37.674;2022-07-22T14:04:10;5.75;;;2.38;;
69621;SDS011;56841;55.964;37.674;2022-07-22T14:06:36;5.15;;;2.25;;
69621;SDS011;56841;55.964;37.674;2022-07-22T14:09:02;4.55;;;2.25;;
69621;SDS011;56841;55.964;37.674;2022-07-22T14:11:29;4.35;;;1.92;;
69621;SDS011;56841;55.964;37.674;2022-07-22T14:13:55;4.30;;;1.80;;
69621;SDS011;56841;55.964;37.674;2022-07-22T14:16:21;3.35;;;1.50;;
69621;SDS011;56841;55.964;37.674;2022-07-22T14:18:59;8.23;;;3.42;;
69621;SDS011;56841;55.964;37.674;2022-07-22T14:21:41;3.50;;;1.98;;
69621;SDS011;56841;55.964;37.674;2022-07-22T14:26:35;2.60;;;1.67;;
69621;SDS011;56841;55.964;37.674;2022-07-22T14:29:03;2.83;;;1.60;;
69621;SDS011;56841;55.964;37.674;2022-07-22T14:31:29;3.58;;;1.85;;
69621;SDS011;56841;55.964;37.674;2022-07-22T14:33:56;4.05;;;1.63;;
69621;SDS011;56841;55.964;37.674;2022-07-22T14:36:22;5.00;;;2.22;;
69621;SDS011;56841;55.964;37.674;2022-07-22T14:38:48;3.28;;;1.60;;
69621;SDS011;56841;55.964;37.674;2022-07-22T14:41:19;3.53;;;2.00;;
69621;SDS011;56841;55.964;37.674;2022-07-22T14:43:46;4.90;;;1.95;;
69621;SDS011;56841;55.964;37.674;2022-07-22T14:46:12;3.13;;;1.63;;
69621;SDS011;56841;55.964;37.674;2022-07-22T14:48:38;6.75;;;2.13;;
69621;SDS011;56841;55.964;37.674;2022-07-22T14:51:05;2.30;;;1.63;;
69621;SDS011;56841;55.964;37.674;2022-07-22T14:53:31;2.75;;;1.52;;
69621;SDS011;56841;55.964;37.674;2022-07-22T14:55:57;3.05;;;1.90;;
69621;SDS011;56841;55.964;37.674;2022-07-22T14:58:23;3.17;;;2.03;;
69621;SDS011;56841;55.964;37.674;2022-07-22T15:00:49;3.58;;;2.45;;
69621;SDS011;56841;55.964;37.674;2022-07-22T15:03:15;4.47;;;1.90;;
69621;SDS011;56841;55.964;37.674;2022-07-22T15:05:41;4.60;;;1.73;;
69621;SDS011;56841;55.964;37.674;2022-07-22T15:08:08;3.80;;;2.00;;
69621;SDS011;56841;55.964;37.674;2022-07-22T15:10:34;3.67;;;1.90;;
69621;SDS011;56841;55.964;37.674;2022-07-22T15:13:00;3.28;;;2.25;;
69621;SDS011;56841;55.964;37.674;2022-07-22T15:15:26;3.42;;;2.05;;